sensor_id;sensor_type;location;lat;lon;timestamp;temperature;humidity
16744;DHT22;71724;-33.900;151.182;2024-03-23T00:52:36;23.50;65.80
16744;DHT22;71724;-33.900;151.182;2024-03-23T00:55:03;23.60;65.70
16744;DHT22;71724;-33.900;151.182;2024-03-23T00:57:34;23.70;66.10
16744;DHT22;71724;-33.900;151.182;2024-03-23T01:00:01;23.70;64.20
16744;DHT22;71724;-33.900;151.182;2024-03-23T01:02:29;23.70;64.70
16744;DHT22;71724;-33.900;151.182;2024-03-23T01:04:59;23.70;64.90
16744;DHT22;71724;-33.900;151.182;2024-03-23T01:07:27;23.70;65.50
16744;DHT22;71724;-33.900;151.182;2024-03-23T01:09:54;23.70;65.60
16744;DHT22;71724;-33.900;151.182;2024-03-23T01:12:22;23.70;65.30
16744;DHT22;71724;-33.900;151.182;2024-03-23T01:14:49;23.70;64.40
16744;DHT22;71724;-33.900;151.182;2024-03-23T01:17:16;23.70;64.80
16744;DHT22;71724;-33.900;151.182;2024-03-23T01:19:44;23.60;64.40
16744;DHT22;71724;-33.900;151.182;2024-03-23T01:22:11;23.40;64.50
16744;DHT22;71724;-33.900;151.182;2024-03-23T01:24:39;23.50;64.80
16744;DHT22;71724;-33.900;151.182;2024-03-23T01:27:06;23.40;64.80
16744;DHT22;71724;-33.900;151.182;2024-03-23T01:29:34;23.40;65.30
16744;DHT22;71724;-33.900;151.182;2024-03-23T01:32:01;23.40;65.80
16744;DHT22;71724;-33.900;151.182;2024-03-23T01:34:28;23.30;65.80
16744;DHT22;71724;-33.900;151.182;2024-03-23T01:36:56;23.30;66.20
16744;DHT22;71724;-33.900;151.182;2024-03-23T01:39:23;23.20;66.40
16744;DHT22;71724;-33.900;151.182;2024-03-23T01:41:51;23.20;66.70
16744;DHT22;71724;-33.900;151.182;2024-03-23T01:44:18;23.20;67.00
16744;DHT22;71724;-33.900;151.182;2024-03-23T01:46:45;23.30;67.20
16744;DHT22;71724;-33.900;151.182;2024-03-23T01:49:13;23.20;67.40
16744;DHT22;71724;-33.900;151.182;2024-03-23T01:51:42;23.20;67.40
16744;DHT22;71724;-33.900;151.182;2024-03-23T01:54:10;23.20;67.70
16744;DHT22;71724;-33.900;151.182;2024-03-23T01:56:37;23.20;67.70
16744;DHT22;71724;-33.900;151.182;2024-03-23T01:59:05;23.20;67.90
16744;DHT22;71724;-33.900;151.182;2024-03-23T02:01:36;23.20;68.10
16744;DHT22;71724;-33.900;151.182;2024-03-23T02:04:04;23.20;68.30
16744;DHT22;71724;-33.900;151.182;2024-03-23T02:06:32;23.20;68.50
16744;DHT22;71724;-33.900;151.182;2024-03-23T02:09:00;23.20;68.50
16744;DHT22;71724;-33.900;151.182;2024-03-23T02:11:27;23.30;68.50
16744;DHT22;71724;-33.900;151.182;2024-03-23T02:13:55;23.30;68.30
16744;DHT22;71724;-33.900;151.182;2024-03-23T02:16:22;23.40;68.50
16744;DHT22;71724;-33.900;151.182;2024-03-23T02:18:49;23.50;68.30
16744;DHT22;71724;-33.900;151.182;2024-03-23T02:21:17;23.60;68.40
16744;DHT22;71724;-33.900;151.182;2024-03-23T02:23:44;23.70;68.30
16744;DHT22;71724;-33.900;151.182;2024-03-23T02:26:12;23.70;68.20
16744;DHT22;71724;-33.900;151.182;2024-03-23T02:28:40;23.80;68.30
16744;DHT22;71724;-33.900;151.182;2024-03-23T02:31:08;23.70;67.70
16744;DHT22;71724;-33.900;151.182;2024-03-23T02:33:35;23.70;67.10
16744;DHT22;71724;-33.900;151.182;2024-03-23T02:36:04;23.70;67.60
16744;DHT22;71724;-33.900;151.182;2024-03-23T02:38:32;23.70;67.70
16744;DHT22;71724;-33.900;151.182;2024-03-23T02:41:05;23.70;68.00
16744;DHT22;71724;-33.900;151.182;2024-03-23T02:43:32;23.80;68.10
16744;DHT22;71724;-33.900;151.182;2024-03-23T02:46:00;23.80;67.10
16744;DHT22;71724;-33.900;151.182;2024-03-23T02:48:27;23.90;67.10
16744;DHT22;71724;-33.900;151.182;2024-03-23T02:50:55;23.90;67.40
16744;DHT22;71724;-33.900;151.182;2024-03-23T02:53:22;23.90;67.50
16744;DHT22;71724;-33.900;151.182;2024-03-23T02:55:49;23.90;67.30
16744;DHT22;71724;-33.900;151.182;2024-03-23T02:58:17;23.90;67.40
16744;DHT22;71724;-33.900;151.182;2024-03-23T03:00:44;23.90;67.50
16744;DHT22;71724;-33.900;151.182;2024-03-23T03:03:12;23.90;67.60
16744;DHT22;71724;-33.900;151.182;2024-03-23T03:05:39;23.90;67.80
16744;DHT22;71724;-33.900;151.182;2024-03-23T03:08:07;23.90;67.90
16744;DHT22;71724;-33.900;151.182;2024-03-23T03:10:34;23.80;67.90
16744;DHT22;71724;-33.900;151.182;2024-03-23T03:13:03;23.80;68.20
16744;DHT22;71724;-33.900;151.182;2024-03-23T03:15:30;23.80;68.10
16744;DHT22;71724;-33.900;151.182;2024-03-23T03:17:58;23.80;68.30
16744;DHT22;71724;-33.900;151.182;2024-03-23T03:20:25;23.80;68.20
16744;DHT22;71724;-33.900;151.182;2024-03-23T03:22:54;23.80;67.80
16744;DHT22;71724;-33.900;151.182;2024-03-23T03:25:21;23.90;67.80
16744;DHT22;71724;-33.900;151.182;2024-03-23T03:27:48;23.90;67.90
16744;DHT22;71724;-33.900;151.182;2024-03-23T03:30:16;23.90;67.90
16744;DHT22;71724;-33.900;151.182;2024-03-23T03:32:43;24.00;68.00
16744;DHT22;71724;-33.900;151.182;2024-03-23T03:35:11;24.00;67.70
16744;DHT22;71724;-33.900;151.182;2024-03-23T03:37:38;24.00;67.50
16744;DHT22;71724;-33.900;151.182;2024-03-23T03:40:06;24.00;67.20
16744;DHT22;71724;-33.900;151.182;2024-03-23T03:42:35;24.00;66.90
16744;DHT22;71724;-33.900;151.182;2024-03-23T03:45:03;24.00;66.90
16744;DHT22;71724;-33.900;151.182;2024-03-23T03:47:31;24.10;66.30
16744;DHT22;71724;-33.900;151.182;2024-03-23T03:49:58;24.00;66.40
16744;DHT22;71724;-33.900;151.182;2024-03-23T03:52:26;24.10;66.50
16744;DHT22;71724;-33.900;151.182;2024-03-23T03:55:00;24.20;66.50
16744;DHT22;71724;-33.900;151.182;2024-03-23T03:57:29;24.10;66.70
16744;DHT22;71724;-33.900;151.182;2024-03-23T03:59:56;24.20;66.60
16744;DHT22;71724;-33.900;151.182;2024-03-23T04:02:23;24.20;66.70
16744;DHT22;71724;-33.900;151.182;2024-03-23T04:04:51;24.30;66.40
16744;DHT22;71724;-33.900;151.182;2024-03-23T04:07:19;24.30;64.80
16744;DHT22;71724;-33.900;151.182;2024-03-23T04:09:49;24.30;65.30
16744;DHT22;71724;-33.900;151.182;2024-03-23T04:12:16;24.30;65.90
16744;DHT22;71724;-33.900;151.182;2024-03-23T04:14:44;24.30;65.80
16744;DHT22;71724;-33.900;151.182;2024-03-23T04:17:11;24.40;65.90
16744;DHT22;71724;-33.900;151.182;2024-03-23T04:19:39;24.40;65.40
16744;DHT22;71724;-33.900;151.182;2024-03-23T04:22:06;24.40;65.50
16744;DHT22;71724;-33.900;151.182;2024-03-23T04:24:33;24.40;64.80
16744;DHT22;71724;-33.900;151.182;2024-03-23T04:27:01;24.30;65.10
16744;DHT22;71724;-33.900;151.182;2024-03-23T04:29:29;24.40;65.50
16744;DHT22;71724;-33.900;151.182;2024-03-23T04:31:57;24.40;65.70
16744;DHT22;71724;-33.900;151.182;2024-03-23T04:34:24;24.50;65.60
16744;DHT22;71724;-33.900;151.182;2024-03-23T04:36:51;24.50;65.40
16744;DHT22;71724;-33.900;151.182;2024-03-23T04:39:19;24.50;65.50
16744;DHT22;71724;-33.900;151.182;2024-03-23T04:41:46;24.50;65.40
16744;DHT22;71724;-33.900;151.182;2024-03-23T04:44:14;24.50;65.50
16744;DHT22;71724;-33.900;151.182;2024-03-23T04:46:41;24.40;65.10
16744;DHT22;71724;-33.900;151.182;2024-03-23T04:49:09;24.30;65.10
16744;DHT22;71724;-33.900;151.182;2024-03-23T04:51:37;24.30;65.00
16744;DHT22;71724;-33.900;151.182;2024-03-23T04:54:05;24.30;65.20
16744;DHT22;71724;-33.900;151.182;2024-03-23T04:56:32;24.30;65.60
16744;DHT22;71724;-33.900;151.182;2024-03-23T04:58:59;24.30;65.70
16744;DHT22;71724;-33.900;151.182;2024-03-23T05:01:28;24.40;65.80
16744;DHT22;71724;-33.900;151.182;2024-03-23T05:03:56;24.30;65.30
16744;DHT22;71724;-33.900;151.182;2024-03-23T05:06:24;24.30;65.10
16744;DHT22;71724;-33.900;151.182;2024-03-23T05:08:54;24.20;65.10
16744;DHT22;71724;-33.900;151.182;2024-03-23T05:11:21;24.20;65.30
16744;DHT22;71724;-33.900;151.182;2024-03-23T05:13:49;24.10;65.50
16744;DHT22;71724;-33.900;151.182;2024-03-23T05:16:16;24.10;65.70
16744;DHT22;71724;-33.900;151.182;2024-03-23T05:18:44;24.10;65.80
16744;DHT22;71724;-33.900;151.182;2024-03-23T05:21:12;24.00;65.90
16744;DHT22;71724;-33.900;151.182;2024-03-23T05:23:39;24.00;65.70
16744;DHT22;71724;-33.900;151.182;2024-03-23T05:26:07;23.90;65.70
16744;DHT22;71724;-33.900;151.182;2024-03-23T05:28:34;23.80;65.80
16744;DHT22;71724;-33.900;151.182;2024-03-23T05:31:03;23.80;65.90
16744;DHT22;71724;-33.900;151.182;2024-03-23T05:33:30;23.80;66.00
16744;DHT22;71724;-33.900;151.182;2024-03-23T05:35:59;23.80;66.10
16744;DHT22;71724;-33.900;151.182;2024-03-23T05:38:27;23.80;66.30
16744;DHT22;71724;-33.900;151.182;2024-03-23T05:41:03;23.70;66.30
16744;DHT22;71724;-33.900;151.182;2024-03-23T05:43:31;23.70;66.50
16744;DHT22;71724;-33.900;151.182;2024-03-23T05:45:59;23.70;66.70
16744;DHT22;71724;-33.900;151.182;2024-03-23T05:48:28;23.70;66.80
16744;DHT22;71724;-33.900;151.182;2024-03-23T05:50:57;23.70;66.90
16744;DHT22;71724;-33.900;151.182;2024-03-23T05:53:25;23.70;67.00
16744;DHT22;71724;-33.900;151.182;2024-03-23T05:55:59;23.70;67.10
16744;DHT22;71724;-33.900;151.182;2024-03-23T05:58:27;23.70;67.20
16744;DHT22;71724;-33.900;151.182;2024-03-23T06:00:59;23.60;67.30
16744;DHT22;71724;-33.900;151.182;2024-03-23T06:03:30;23.60;67.50
16744;DHT22;71724;-33.900;151.182;2024-03-23T06:05:57;23.60;67.60
16744;DHT22;71724;-33.900;151.182;2024-03-23T06:08:25;23.60;67.40
16744;DHT22;71724;-33.900;151.182;2024-03-23T06:10:52;23.50;67.50
16744;DHT22;71724;-33.900;151.182;2024-03-23T06:13:21;23.50;67.70
16744;DHT22;71724;-33.900;151.182;2024-03-23T06:15:56;23.40;67.80
16744;DHT22;71724;-33.900;151.182;2024-03-23T06:18:24;23.40;67.80
16744;DHT22;71724;-33.900;151.182;2024-03-23T06:20:51;23.40;67.90
16744;DHT22;71724;-33.900;151.182;2024-03-23T06:23:18;23.30;67.80
16744;DHT22;71724;-33.900;151.182;2024-03-23T06:25:47;23.30;68.00
16744;DHT22;71724;-33.900;151.182;2024-03-23T06:28:15;23.30;68.10
16744;DHT22;71724;-33.900;151.182;2024-03-23T06:30:42;23.30;68.30
16744;DHT22;71724;-33.900;151.182;2024-03-23T06:33:10;23.20;68.30
16744;DHT22;71724;-33.900;151.182;2024-03-23T06:35:37;23.20;68.30
16744;DHT22;71724;-33.900;151.182;2024-03-23T06:38:05;23.30;68.40
16744;DHT22;71724;-33.900;151.182;2024-03-23T06:40:32;23.30;68.40
16744;DHT22;71724;-33.900;151.182;2024-03-23T06:42:59;23.20;68.40
16744;DHT22;71724;-33.900;151.182;2024-03-23T06:45:27;23.20;68.50
16744;DHT22;71724;-33.900;151.182;2024-03-23T06:47:54;23.20;68.50
16744;DHT22;71724;-33.900;151.182;2024-03-23T06:50:24;23.20;68.50
16744;DHT22;71724;-33.900;151.182;2024-03-23T06:52:52;23.20;68.50
16744;DHT22;71724;-33.900;151.182;2024-03-23T06:55:19;23.10;68.50
16744;DHT22;71724;-33.900;151.182;2024-03-23T06:57:47;23.10;68.30
16744;DHT22;71724;-33.900;151.182;2024-03-23T07:00:14;23.00;68.40
16744;DHT22;71724;-33.900;151.182;2024-03-23T07:02:43;23.00;68.50
16744;DHT22;71724;-33.900;151.182;2024-03-23T07:05:11;23.00;68.60
16744;DHT22;71724;-33.900;151.182;2024-03-23T07:07:39;23.00;68.60
16744;DHT22;71724;-33.900;151.182;2024-03-23T07:10:08;23.00;68.70
16744;DHT22;71724;-33.900;151.182;2024-03-23T07:12:35;22.90;69.10
16744;DHT22;71724;-33.900;151.182;2024-03-23T07:15:03;22.90;69.00
16744;DHT22;71724;-33.900;151.182;2024-03-23T07:17:30;22.90;69.10
16744;DHT22;71724;-33.900;151.182;2024-03-23T07:19:59;22.90;69.00
16744;DHT22;71724;-33.900;151.182;2024-03-23T07:22:28;22.90;69.20
16744;DHT22;71724;-33.900;151.182;2024-03-23T07:24:55;22.80;69.00
16744;DHT22;71724;-33.900;151.182;2024-03-23T07:27:22;22.80;69.10
16744;DHT22;71724;-33.900;151.182;2024-03-23T07:29:50;22.80;69.10
16744;DHT22;71724;-33.900;151.182;2024-03-23T07:32:17;22.80;69.20
16744;DHT22;71724;-33.900;151.182;2024-03-23T07:34:45;22.80;69.30
16744;DHT22;71724;-33.900;151.182;2024-03-23T07:37:12;22.80;69.40
16744;DHT22;71724;-33.900;151.182;2024-03-23T07:39:43;22.80;69.70
16744;DHT22;71724;-33.900;151.182;2024-03-23T07:42:10;22.80;69.70
16744;DHT22;71724;-33.900;151.182;2024-03-23T07:44:38;22.80;69.90
16744;DHT22;71724;-33.900;151.182;2024-03-23T07:47:06;22.80;70.10
16744;DHT22;71724;-33.900;151.182;2024-03-23T07:49:33;22.80;70.30
16744;DHT22;71724;-33.900;151.182;2024-03-23T07:52:01;22.70;70.30
16744;DHT22;71724;-33.900;151.182;2024-03-23T07:54:28;22.70;70.40
16744;DHT22;71724;-33.900;151.182;2024-03-23T07:56:55;22.70;70.50
16744;DHT22;71724;-33.900;151.182;2024-03-23T07:59:23;22.70;70.50
16744;DHT22;71724;-33.900;151.182;2024-03-23T08:01:51;22.60;70.70
16744;DHT22;71724;-33.900;151.182;2024-03-23T08:04:19;22.60;70.70
16744;DHT22;71724;-33.900;151.182;2024-03-23T08:06:47;22.60;70.80
16744;DHT22;71724;-33.900;151.182;2024-03-23T08:09:14;22.50;70.80
16744;DHT22;71724;-33.900;151.182;2024-03-23T08:11:41;22.50;71.00
16744;DHT22;71724;-33.900;151.182;2024-03-23T08:14:12;22.50;71.20
16744;DHT22;71724;-33.900;151.182;2024-03-23T08:16:39;22.50;71.20
16744;DHT22;71724;-33.900;151.182;2024-03-23T08:19:08;22.50;71.30
16744;DHT22;71724;-33.900;151.182;2024-03-23T08:21:35;22.50;71.40
16744;DHT22;71724;-33.900;151.182;2024-03-23T08:24:03;22.50;71.50
16744;DHT22;71724;-33.900;151.182;2024-03-23T08:26:31;22.50;71.60
16744;DHT22;71724;-33.900;151.182;2024-03-23T08:28:59;22.40;71.80
16744;DHT22;71724;-33.900;151.182;2024-03-23T08:31:26;22.40;71.90
16744;DHT22;71724;-33.900;151.182;2024-03-23T08:33:54;22.40;72.20
16744;DHT22;71724;-33.900;151.182;2024-03-23T08:36:21;22.40;72.30
16744;DHT22;71724;-33.900;151.182;2024-03-23T08:38:51;22.40;72.90
16744;DHT22;71724;-33.900;151.182;2024-03-23T08:41:20;22.40;73.00
16744;DHT22;71724;-33.900;151.182;2024-03-23T08:43:47;22.30;73.20
16744;DHT22;71724;-33.900;151.182;2024-03-23T08:46:16;22.30;73.30
16744;DHT22;71724;-33.900;151.182;2024-03-23T08:48:48;22.30;73.60
16744;DHT22;71724;-33.900;151.182;2024-03-23T08:51:19;22.30;73.50
16744;DHT22;71724;-33.900;151.182;2024-03-23T08:53:47;22.30;73.50
16744;DHT22;71724;-33.900;151.182;2024-03-23T08:56:14;22.30;73.70
16744;DHT22;71724;-33.900;151.182;2024-03-23T08:58:42;22.30;73.70
16744;DHT22;71724;-33.900;151.182;2024-03-23T09:01:12;22.30;73.90
16744;DHT22;71724;-33.900;151.182;2024-03-23T09:03:42;22.30;74.10
16744;DHT22;71724;-33.900;151.182;2024-03-23T09:06:12;22.30;74.20
16744;DHT22;71724;-33.900;151.182;2024-03-23T09:08:39;22.30;74.30
16744;DHT22;71724;-33.900;151.182;2024-03-23T09:11:08;22.30;74.20
16744;DHT22;71724;-33.900;151.182;2024-03-23T09:13:37;22.30;74.30
16744;DHT22;71724;-33.900;151.182;2024-03-23T09:16:05;22.30;74.50
16744;DHT22;71724;-33.900;151.182;2024-03-23T09:18:34;22.30;74.50
16744;DHT22;71724;-33.900;151.182;2024-03-23T09:21:02;22.30;74.60
16744;DHT22;71724;-33.900;151.182;2024-03-23T09:23:31;22.30;74.60
16744;DHT22;71724;-33.900;151.182;2024-03-23T09:26:03;22.30;74.70
16744;DHT22;71724;-33.900;151.182;2024-03-23T09:28:31;22.20;74.90
16744;DHT22;71724;-33.900;151.182;2024-03-23T09:31:08;22.20;75.10
16744;DHT22;71724;-33.900;151.182;2024-03-23T09:33:42;22.20;75.10
16744;DHT22;71724;-33.900;151.182;2024-03-23T09:36:10;22.20;75.40
16744;DHT22;71724;-33.900;151.182;2024-03-23T09:38:37;22.20;75.30
16744;DHT22;71724;-33.900;151.182;2024-03-23T09:41:09;22.20;75.50
16744;DHT22;71724;-33.900;151.182;2024-03-23T09:43:37;22.20;75.70
16744;DHT22;71724;-33.900;151.182;2024-03-23T09:46:04;22.20;75.70
16744;DHT22;71724;-33.900;151.182;2024-03-23T09:48:32;22.20;76.00
16744;DHT22;71724;-33.900;151.182;2024-03-23T09:51:00;22.20;76.20
16744;DHT22;71724;-33.900;151.182;2024-03-23T09:53:29;22.20;76.10
16744;DHT22;71724;-33.900;151.182;2024-03-23T09:55:58;22.20;75.90
16744;DHT22;71724;-33.900;151.182;2024-03-23T09:58:25;22.20;75.80
16744;DHT22;71724;-33.900;151.182;2024-03-23T10:00:52;22.10;75.60
16744;DHT22;71724;-33.900;151.182;2024-03-23T10:03:20;22.10;75.80
16744;DHT22;71724;-33.900;151.182;2024-03-23T10:05:47;22.10;75.90
16744;DHT22;71724;-33.900;151.182;2024-03-23T10:08:30;22.10;76.10
16744;DHT22;71724;-33.900;151.182;2024-03-23T10:11:13;22.10;76.10
16744;DHT22;71724;-33.900;151.182;2024-03-23T10:13:43;22.10;76.00
16744;DHT22;71724;-33.900;151.182;2024-03-23T10:16:10;22.10;76.10
16744;DHT22;71724;-33.900;151.182;2024-03-23T10:18:39;22.10;76.30
16744;DHT22;71724;-33.900;151.182;2024-03-23T10:23:41;22.10;76.60
16744;DHT22;71724;-33.900;151.182;2024-03-23T10:28:53;22.00;76.60
16744;DHT22;71724;-33.900;151.182;2024-03-23T10:31:22;22.00;76.60
16744;DHT22;71724;-33.900;151.182;2024-03-23T10:33:50;22.00;76.60
16744;DHT22;71724;-33.900;151.182;2024-03-23T10:36:20;22.00;76.70
16744;DHT22;71724;-33.900;151.182;2024-03-23T10:38:49;22.10;76.70
16744;DHT22;71724;-33.900;151.182;2024-03-23T10:41:17;22.00;76.80
16744;DHT22;71724;-33.900;151.182;2024-03-23T10:43:48;22.10;76.90
16744;DHT22;71724;-33.900;151.182;2024-03-23T10:46:16;22.00;76.90
16744;DHT22;71724;-33.900;151.182;2024-03-23T10:48:44;22.00;76.90
16744;DHT22;71724;-33.900;151.182;2024-03-23T10:51:13;22.00;77.10
16744;DHT22;71724;-33.900;151.182;2024-03-23T10:53:41;22.00;77.30
16744;DHT22;71724;-33.900;151.182;2024-03-23T10:56:09;22.00;77.30
16744;DHT22;71724;-33.900;151.182;2024-03-23T10:58:47;22.00;77.30
16744;DHT22;71724;-33.900;151.182;2024-03-23T11:01:16;22.00;77.50
16744;DHT22;71724;-33.900;151.182;2024-03-23T11:03:47;22.00;77.50
16744;DHT22;71724;-33.900;151.182;2024-03-23T11:06:44;22.00;77.70
16744;DHT22;71724;-33.900;151.182;2024-03-23T11:11:56;22.00;77.80
16744;DHT22;71724;-33.900;151.182;2024-03-23T11:14:23;22.00;77.90
16744;DHT22;71724;-33.900;151.182;2024-03-23T11:17:08;22.00;77.90
16744;DHT22;71724;-33.900;151.182;2024-03-23T11:19:37;22.00;78.30
16744;DHT22;71724;-33.900;151.182;2024-03-23T11:22:05;22.00;78.00
16744;DHT22;71724;-33.900;151.182;2024-03-23T11:24:34;22.00;77.80
16744;DHT22;71724;-33.900;151.182;2024-03-23T11:27:02;22.00;77.70
16744;DHT22;71724;-33.900;151.182;2024-03-23T11:29:30;22.00;77.70
16744;DHT22;71724;-33.900;151.182;2024-03-23T11:31:58;22.00;77.70
16744;DHT22;71724;-33.900;151.182;2024-03-23T11:34:25;22.00;77.70
16744;DHT22;71724;-33.900;151.182;2024-03-23T11:37:04;22.00;77.90
16744;DHT22;71724;-33.900;151.182;2024-03-23T11:39:32;22.00;77.90
16744;DHT22;71724;-33.900;151.182;2024-03-23T11:42:00;22.00;77.90
16744;DHT22;71724;-33.900;151.182;2024-03-23T11:44:27;22.00;78.10
16744;DHT22;71724;-33.900;151.182;2024-03-23T11:47:08;21.90;78.10
16744;DHT22;71724;-33.900;151.182;2024-03-23T11:49:39;21.90;78.10
16744;DHT22;71724;-33.900;151.182;2024-03-23T11:52:09;22.00;78.20
16744;DHT22;71724;-33.900;151.182;2024-03-23T11:54:37;21.90;78.10
16744;DHT22;71724;-33.900;151.182;2024-03-23T11:57:08;21.90;78.10
16744;DHT22;71724;-33.900;151.182;2024-03-23T11:59:37;21.90;78.10
16744;DHT22;71724;-33.900;151.182;2024-03-23T12:02:12;21.90;78.30
16744;DHT22;71724;-33.900;151.182;2024-03-23T12:04:43;21.90;78.20
16744;DHT22;71724;-33.900;151.182;2024-03-23T12:07:17;21.90;78.10
16744;DHT22;71724;-33.900;151.182;2024-03-23T12:10:03;21.90;78.10
16744;DHT22;71724;-33.900;151.182;2024-03-23T12:12:32;21.80;78.20
16744;DHT22;71724;-33.900;151.182;2024-03-23T12:15:04;21.90;78.30
16744;DHT22;71724;-33.900;151.182;2024-03-23T12:17:32;21.90;78.20
16744;DHT22;71724;-33.900;151.182;2024-03-23T12:20:01;21.90;78.20
16744;DHT22;71724;-33.900;151.182;2024-03-23T12:22:29;21.80;78.10
16744;DHT22;71724;-33.900;151.182;2024-03-23T12:24:57;21.80;78.20
16744;DHT22;71724;-33.900;151.182;2024-03-23T12:27:24;21.80;78.20
16744;DHT22;71724;-33.900;151.182;2024-03-23T12:29:52;21.80;78.20
16744;DHT22;71724;-33.900;151.182;2024-03-23T12:32:20;21.80;78.10
16744;DHT22;71724;-33.900;151.182;2024-03-23T12:34:47;21.80;78.00
16744;DHT22;71724;-33.900;151.182;2024-03-23T12:37:15;21.80;78.10
16744;DHT22;71724;-33.900;151.182;2024-03-23T12:39:44;21.80;78.20
16744;DHT22;71724;-33.900;151.182;2024-03-23T12:42:11;21.80;78.20
16744;DHT22;71724;-33.900;151.182;2024-03-23T12:44:38;21.80;78.40
16744;DHT22;71724;-33.900;151.182;2024-03-23T12:47:06;21.80;78.30
16744;DHT22;71724;-33.900;151.182;2024-03-23T12:49:33;21.80;78.40
16744;DHT22;71724;-33.900;151.182;2024-03-23T12:52:00;21.80;78.50
16744;DHT22;71724;-33.900;151.182;2024-03-23T12:54:28;21.80;78.40
16744;DHT22;71724;-33.900;151.182;2024-03-23T12:56:57;21.80;78.70
16744;DHT22;71724;-33.900;151.182;2024-03-23T12:59:28;21.80;79.10
16744;DHT22;71724;-33.900;151.182;2024-03-23T13:01:56;21.70;78.90
16744;DHT22;71724;-33.900;151.182;2024-03-23T13:04:24;21.70;78.80
16744;DHT22;71724;-33.900;151.182;2024-03-23T13:06:51;21.70;78.80
16744;DHT22;71724;-33.900;151.182;2024-03-23T13:09:18;21.70;78.90
16744;DHT22;71724;-33.900;151.182;2024-03-23T13:11:46;21.70;79.10
16744;DHT22;71724;-33.900;151.182;2024-03-23T13:14:13;21.70;79.00
16744;DHT22;71724;-33.900;151.182;2024-03-23T13:16:43;21.70;79.00
16744;DHT22;71724;-33.900;151.182;2024-03-23T13:19:11;21.70;79.00
16744;DHT22;71724;-33.900;151.182;2024-03-23T13:21:39;21.70;78.90
16744;DHT22;71724;-33.900;151.182;2024-03-23T13:24:06;21.60;79.00
16744;DHT22;71724;-33.900;151.182;2024-03-23T13:26:34;21.60;79.20
16744;DHT22;71724;-33.900;151.182;2024-03-23T13:29:01;21.60;79.40
16744;DHT22;71724;-33.900;151.182;2024-03-23T13:31:29;21.60;79.40
16744;DHT22;71724;-33.900;151.182;2024-03-23T13:33:56;21.60;79.20
16744;DHT22;71724;-33.900;151.182;2024-03-23T13:36:24;21.60;79.10
16744;DHT22;71724;-33.900;151.182;2024-03-23T13:38:51;21.60;79.10
16744;DHT22;71724;-33.900;151.182;2024-03-23T13:41:19;21.60;79.20
16744;DHT22;71724;-33.900;151.182;2024-03-23T13:43:46;21.60;79.10
16744;DHT22;71724;-33.900;151.182;2024-03-23T13:46:13;21.60;78.90
16744;DHT22;71724;-33.900;151.182;2024-03-23T13:48:41;21.50;78.90
16744;DHT22;71724;-33.900;151.182;2024-03-23T13:51:08;21.50;79.10
16744;DHT22;71724;-33.900;151.182;2024-03-23T13:53:36;21.60;79.10
16744;DHT22;71724;-33.900;151.182;2024-03-23T13:56:03;21.60;79.10
16744;DHT22;71724;-33.900;151.182;2024-03-23T13:58:31;21.50;79.10
16744;DHT22;71724;-33.900;151.182;2024-03-23T14:00:58;21.50;79.00
16744;DHT22;71724;-33.900;151.182;2024-03-23T14:03:26;21.60;79.20
16744;DHT22;71724;-33.900;151.182;2024-03-23T14:05:58;21.50;79.00
16744;DHT22;71724;-33.900;151.182;2024-03-23T14:08:28;21.50;79.20
16744;DHT22;71724;-33.900;151.182;2024-03-23T14:10:58;21.50;79.00
16744;DHT22;71724;-33.900;151.182;2024-03-23T14:13:26;21.60;79.00
16744;DHT22;71724;-33.900;151.182;2024-03-23T14:15:54;21.50;78.90
16744;DHT22;71724;-33.900;151.182;2024-03-23T14:18:22;21.50;79.20
16744;DHT22;71724;-33.900;151.182;2024-03-23T14:21:01;21.50;79.00
16744;DHT22;71724;-33.900;151.182;2024-03-23T14:23:30;21.50;79.10
16744;DHT22;71724;-33.900;151.182;2024-03-23T14:26:00;21.40;79.10
16744;DHT22;71724;-33.900;151.182;2024-03-23T14:28:28;21.40;79.40
16744;DHT22;71724;-33.900;151.182;2024-03-23T14:30:56;21.50;79.50
16744;DHT22;71724;-33.900;151.182;2024-03-23T14:33:24;21.50;79.50
16744;DHT22;71724;-33.900;151.182;2024-03-23T14:35:55;21.50;79.40
16744;DHT22;71724;-33.900;151.182;2024-03-23T14:38:25;21.40;79.40
16744;DHT22;71724;-33.900;151.182;2024-03-23T14:40:54;21.40;79.60
16744;DHT22;71724;-33.900;151.182;2024-03-23T14:43:24;21.40;79.90
16744;DHT22;71724;-33.900;151.182;2024-03-23T14:48:38;21.40;80.00
16744;DHT22;71724;-33.900;151.182;2024-03-23T14:51:06;21.40;80.00
16744;DHT22;71724;-33.900;151.182;2024-03-23T14:53:36;21.40;79.90
16744;DHT22;71724;-33.900;151.182;2024-03-23T14:56:04;21.30;80.00
16744;DHT22;71724;-33.900;151.182;2024-03-23T14:58:32;21.30;80.20
16744;DHT22;71724;-33.900;151.182;2024-03-23T15:01:06;21.30;80.50
16744;DHT22;71724;-33.900;151.182;2024-03-23T15:03:39;21.30;80.80
16744;DHT22;71724;-33.900;151.182;2024-03-23T15:06:09;21.20;81.20
16744;DHT22;71724;-33.900;151.182;2024-03-23T15:08:37;21.30;81.30
16744;DHT22;71724;-33.900;151.182;2024-03-23T15:11:07;21.20;81.40
16744;DHT22;71724;-33.900;151.182;2024-03-23T15:13:35;21.20;81.30
16744;DHT22;71724;-33.900;151.182;2024-03-23T15:16:03;21.20;81.30
16744;DHT22;71724;-33.900;151.182;2024-03-23T15:18:31;21.20;81.20
16744;DHT22;71724;-33.900;151.182;2024-03-23T15:21:00;21.20;81.40
16744;DHT22;71724;-33.900;151.182;2024-03-23T15:23:35;21.10;81.70
16744;DHT22;71724;-33.900;151.182;2024-03-23T15:26:03;21.10;81.80
16744;DHT22;71724;-33.900;151.182;2024-03-23T15:28:32;21.10;82.00
16744;DHT22;71724;-33.900;151.182;2024-03-23T15:31:10;21.00;82.10
16744;DHT22;71724;-33.900;151.182;2024-03-23T15:33:38;21.00;82.40
16744;DHT22;71724;-33.900;151.182;2024-03-23T15:36:06;21.00;82.70
16744;DHT22;71724;-33.900;151.182;2024-03-23T15:38:34;21.00;82.80
16744;DHT22;71724;-33.900;151.182;2024-03-23T15:41:02;21.00;82.80
16744;DHT22;71724;-33.900;151.182;2024-03-23T15:43:30;21.00;82.90
16744;DHT22;71724;-33.900;151.182;2024-03-23T15:46:02;21.00;82.90
16744;DHT22;71724;-33.900;151.182;2024-03-23T15:48:31;21.00;83.00
16744;DHT22;71724;-33.900;151.182;2024-03-23T15:51:00;21.00;82.90
16744;DHT22;71724;-33.900;151.182;2024-03-23T15:53:28;21.00;82.80
16744;DHT22;71724;-33.900;151.182;2024-03-23T15:55:59;20.90;82.80
16744;DHT22;71724;-33.900;151.182;2024-03-23T15:58:28;21.00;83.00